createdAt,value
2023-05-19T00:00:01.078Z,11.91
2023-05-19T00:02:33.964Z,11.90
2023-05-19T00:05:02.935Z,11.89
2023-05-19T00:07:32.777Z,11.88
2023-05-19T00:10:01.643Z,11.85
2023-05-19T00:12:30.195Z,11.83
2023-05-19T00:15:01.942Z,11.80
2023-05-19T00:17:30.033Z,11.77
2023-05-19T00:19:58.548Z,11.75
2023-05-19T00:22:26.621Z,11.73
2023-05-19T00:24:59.812Z,11.71
2023-05-19T00:27:31.262Z,11.68
2023-05-19T00:30:09.602Z,11.66
2023-05-19T00:32:37.801Z,11.64
2023-05-19T00:35:06.841Z,11.62
2023-05-19T00:37:34.995Z,11.62
2023-05-19T00:40:05.737Z,11.60
2023-05-19T00:42:34.250Z,11.58
2023-05-19T00:45:05.506Z,11.57
2023-05-19T00:47:34.299Z,11.56
2023-05-19T00:50:02.815Z,11.55
2023-05-19T00:52:31.445Z,11.55
2023-05-19T00:55:00.242Z,11.54
2023-05-19T00:57:28.881Z,11.53
2023-05-19T00:59:57.183Z,11.52
2023-05-19T01:02:25.767Z,11.51
2023-05-19T01:04:55.624Z,11.50
2023-05-19T01:07:23.834Z,11.49
2023-05-19T01:09:52.220Z,11.48
2023-05-19T01:12:20.518Z,11.48
2023-05-19T01:14:48.925Z,11.47
2023-05-19T01:17:16.949Z,11.47
2023-05-19T01:19:57.627Z,11.47
2023-05-19T01:22:34.566Z,11.46
2023-05-19T01:25:13.270Z,11.46
2023-05-19T01:28:06.464Z,11.46
2023-05-19T01:30:39.830Z,11.45
2023-05-19T01:33:16.013Z,11.45
2023-05-19T01:35:45.901Z,11.45
2023-05-19T01:38:17.507Z,11.44
2023-05-19T01:40:56.869Z,11.45
2023-05-19T01:43:27.492Z,11.45
2023-05-19T01:45:58.776Z,11.45
2023-05-19T01:48:29.960Z,11.44
2023-05-19T01:51:02.595Z,11.44
2023-05-19T01:53:31.160Z,11.43
2023-05-19T01:56:02.025Z,11.42
2023-05-19T01:58:47.151Z,11.42
2023-05-19T02:01:41.602Z,11.41
2023-05-19T02:04:18.714Z,11.40
2023-05-19T02:07:21.313Z,11.40
2023-05-19T02:10:25.245Z,11.40
2023-05-19T02:12:58.870Z,11.38
2023-05-19T02:15:46.424Z,11.37
2023-05-19T02:18:20.583Z,11.35
2023-05-19T02:20:52.047Z,11.35
2023-05-19T02:23:20.584Z,11.34
2023-05-19T02:25:51.652Z,11.32
2023-05-19T02:28:28.547Z,11.31
2023-05-19T02:30:59.443Z,11.31
2023-05-19T02:33:27.853Z,11.30
2023-05-19T02:35:57.391Z,11.29
2023-05-19T02:38:26.009Z,11.29
2023-05-19T02:40:54.335Z,11.28
2023-05-19T02:43:22.648Z,11.27
2023-05-19T02:45:51.028Z,11.27
2023-05-19T02:48:19.459Z,11.26
2023-05-19T02:50:47.972Z,11.25
2023-05-19T02:53:15.999Z,11.25
2023-05-19T02:55:44.173Z,11.25
2023-05-19T02:58:12.243Z,11.25
2023-05-19T03:00:40.442Z,11.24
2023-05-19T03:03:10.600Z,11.23
2023-05-19T03:05:39.196Z,11.22
2023-05-19T03:08:07.488Z,11.22
2023-05-19T03:10:36.356Z,11.20
2023-05-19T03:13:04.417Z,11.17
2023-05-19T03:15:32.547Z,11.18
2023-05-19T03:18:03.842Z,11.19
2023-05-19T03:20:32.480Z,11.21
2023-05-19T03:23:01.667Z,11.22
2023-05-19T03:25:30.154Z,11.25
2023-05-19T03:27:58.616Z,11.26
2023-05-19T03:30:26.958Z,11.29
2023-05-19T03:33:13.841Z,11.32
2023-05-19T03:35:42.180Z,11.37
2023-05-19T03:38:10.635Z,11.43
2023-05-19T03:40:42.308Z,11.50
2023-05-19T03:43:12.010Z,11.58
2023-05-19T03:45:46.514Z,11.67
2023-05-19T03:48:35.964Z,11.78
2023-05-19T03:51:22.514Z,11.91
2023-05-19T03:53:52.716Z,12.02
2023-05-19T03:56:26.743Z,12.13
2023-05-19T03:58:55.470Z,12.25
2023-05-19T04:01:23.863Z,12.35
2023-05-19T04:03:52.339Z,12.46
2023-05-19T04:06:20.576Z,12.56
2023-05-19T04:08:48.852Z,12.66
2023-05-19T04:11:17.334Z,12.79
2023-05-19T04:13:48.687Z,12.90
2023-05-19T04:16:17.416Z,13.00
2023-05-19T04:18:46.468Z,13.14
2023-05-19T04:21:14.735Z,13.28
2023-05-19T04:23:42.841Z,13.42
2023-05-19T04:26:12.436Z,13.57
2023-05-19T04:28:42.468Z,13.72
2023-05-19T04:31:14.692Z,13.87
2023-05-19T04:33:43.477Z,14.03
2023-05-19T04:36:13.888Z,14.19
2023-05-19T04:38:42.406Z,14.34
2023-05-19T04:41:14.749Z,14.50
2023-05-19T04:43:44.577Z,14.68
2023-05-19T04:46:14.156Z,15.21
2023-05-19T04:48:45.232Z,16.26
2023-05-19T04:51:14.472Z,17.47
2023-05-19T04:53:44.981Z,18.65
2023-05-19T04:56:17.350Z,19.78
2023-05-19T04:58:45.787Z,20.90
2023-05-19T05:01:15.803Z,21.95
2023-05-19T05:03:45.036Z,22.93
2023-05-19T05:06:13.116Z,23.65
2023-05-19T05:08:42.714Z,24.42
2023-05-19T05:11:11.794Z,25.30
2023-05-19T05:13:43.156Z,26.08
2023-05-19T05:16:12.462Z,26.69
2023-05-19T05:18:44.693Z,27.14
2023-05-19T05:21:14.220Z,27.46
2023-05-19T05:23:54.186Z,27.93
2023-05-19T05:29:37.068Z,28.90
2023-05-19T05:32:06.209Z,29.24
2023-05-19T05:34:35.942Z,29.38
2023-05-19T05:37:04.158Z,29.35
2023-05-19T05:39:32.559Z,29.01
2023-05-19T05:42:01.548Z,28.39
2023-05-19T05:44:30.671Z,27.62
2023-05-19T05:46:59.655Z,27.06
2023-05-19T05:49:28.183Z,26.59
2023-05-19T05:52:05.595Z,26.15
2023-05-19T05:54:35.996Z,25.57
2023-05-19T05:57:04.371Z,25.01
2023-05-19T05:59:33.972Z,24.54
2023-05-19T06:02:09.702Z,24.23
2023-05-19T06:04:38.376Z,24.00
2023-05-19T06:07:27.352Z,23.78
2023-05-19T06:10:09.048Z,23.55
2023-05-19T06:12:40.783Z,23.39
2023-05-19T06:15:10.645Z,23.32
2023-05-19T06:17:41.402Z,23.25
2023-05-19T06:20:10.293Z,23.24
2023-05-19T06:22:38.459Z,23.24
2023-05-19T06:25:09.045Z,23.22
2023-05-19T06:27:37.617Z,23.26
2023-05-19T06:30:08.721Z,23.19
2023-05-19T06:32:42.652Z,23.14
2023-05-19T06:35:11.152Z,23.18
2023-05-19T06:37:39.483Z,23.15
2023-05-19T06:40:08.634Z,23.11
2023-05-19T06:42:40.138Z,23.03
2023-05-19T06:45:16.220Z,22.95
2023-05-19T06:47:45.371Z,22.93
2023-05-19T06:50:14.736Z,22.89
2023-05-19T06:52:44.438Z,22.81
2023-05-19T06:55:13.966Z,22.73
2023-05-19T06:57:42.462Z,22.72
2023-05-19T07:00:17.595Z,22.78
2023-05-19T07:02:48.154Z,22.80
2023-05-19T07:05:17.699Z,22.72
2023-05-19T07:07:48.335Z,22.59
2023-05-19T07:10:19.530Z,22.50
2023-05-19T07:12:47.784Z,22.43
2023-05-19T07:15:19.930Z,22.39
2023-05-19T07:17:48.069Z,22.37
2023-05-19T07:20:16.620Z,22.19
2023-05-19T07:22:44.768Z,22.14
2023-05-19T07:25:15.231Z,22.29
2023-05-19T07:27:43.400Z,22.43
2023-05-19T07:30:12.103Z,22.69
2023-05-19T07:32:40.157Z,22.98
2023-05-19T07:35:08.830Z,23.23
2023-05-19T07:37:36.936Z,23.45
2023-05-19T07:40:06.847Z,23.68
2023-05-19T07:42:35.273Z,23.73
2023-05-19T07:45:03.782Z,23.77
2023-05-19T07:47:32.176Z,23.84
2023-05-19T07:50:00.271Z,23.88
2023-05-19T07:52:28.531Z,23.90
2023-05-19T07:54:56.607Z,23.93
2023-05-19T07:57:24.869Z,23.94
2023-05-19T08:00:27.328Z,23.96
2023-05-19T08:02:57.317Z,24.15
2023-05-19T08:05:29.781Z,24.39
2023-05-19T08:07:57.792Z,24.50
2023-05-19T08:10:26.061Z,24.56
2023-05-19T08:12:54.024Z,24.76
2023-05-19T08:15:22.117Z,24.99
2023-05-19T08:17:50.441Z,25.20
2023-05-19T08:20:18.856Z,25.46
2023-05-19T08:22:47.047Z,25.63
2023-05-19T08:25:15.193Z,25.81
2023-05-19T08:27:43.410Z,25.97
2023-05-19T08:30:12.470Z,26.08
2023-05-19T08:32:40.629Z,26.18
2023-05-19T08:35:09.249Z,26.34
2023-05-19T08:37:38.840Z,26.58
2023-05-19T08:40:09.025Z,26.81
2023-05-19T08:42:37.091Z,26.84
2023-05-19T08:45:06.282Z,26.54
2023-05-19T08:47:34.943Z,26.29
2023-05-19T08:50:08.028Z,26.19
2023-05-19T08:52:52.581Z,26.13
2023-05-19T08:55:47.173Z,26.14
2023-05-19T08:58:20.391Z,26.36
2023-05-19T09:00:49.530Z,26.58
2023-05-19T09:05:51.833Z,26.75
2023-05-19T09:08:20.090Z,26.89
2023-05-19T09:10:51.263Z,26.86
2023-05-19T09:13:19.801Z,26.96
2023-05-19T09:15:50.404Z,27.16
2023-05-19T09:18:18.521Z,27.27
2023-05-19T09:20:47.380Z,27.28
2023-05-19T09:23:16.936Z,27.12
2023-05-19T09:25:50.368Z,26.84
2023-05-19T09:28:29.499Z,26.58
2023-05-19T09:31:11.677Z,26.32
2023-05-19T09:33:45.617Z,26.05
2023-05-19T09:36:17.229Z,25.84
2023-05-19T09:38:45.718Z,25.65
2023-05-19T09:41:14.923Z,25.53
2023-05-19T09:43:43.203Z,25.43
2023-05-19T09:46:14.897Z,25.31
2023-05-19T09:48:44.976Z,25.18
2023-05-19T09:51:13.425Z,25.02
2023-05-19T09:53:42.263Z,24.88
2023-05-19T09:56:11.107Z,24.80
2023-05-19T09:58:44.107Z,24.74
2023-05-19T10:01:12.768Z,24.65
2023-05-19T10:03:49.653Z,24.58
2023-05-19T10:06:17.801Z,24.53
2023-05-19T10:08:48.100Z,24.50
2023-05-19T10:11:17.676Z,24.40
2023-05-19T10:13:50.988Z,24.26
2023-05-19T10:16:26.869Z,24.20
2023-05-19T10:18:56.761Z,24.32
2023-05-19T10:21:25.121Z,24.49
2023-05-19T10:23:53.250Z,24.70
2023-05-19T10:26:23.248Z,24.80
2023-05-19T10:28:51.805Z,24.93
2023-05-19T10:31:22.861Z,25.01
2023-05-19T10:34:32.715Z,25.20
2023-05-19T10:37:00.727Z,25.54
2023-05-19T10:39:37.545Z,25.85
2023-05-19T10:42:31.100Z,26.14
2023-05-19T10:45:20.440Z,26.31
2023-05-19T10:47:52.024Z,26.43
2023-05-19T10:50:21.021Z,26.49
2023-05-19T10:52:56.377Z,26.48
2023-05-19T10:55:50.386Z,26.48
2023-05-19T10:58:37.653Z,26.62
2023-05-19T11:01:13.656Z,26.90
2023-05-19T11:03:49.699Z,27.13
2023-05-19T11:06:32.440Z,27.34
2023-05-19T11:09:31.094Z,27.55
2023-05-19T11:12:06.947Z,27.74
2023-05-19T11:14:35.223Z,27.85
2023-05-19T11:17:05.613Z,27.78
2023-05-19T11:19:35.686Z,27.73
2023-05-19T11:22:14.086Z,27.74
2023-05-19T11:24:52.075Z,27.73
2023-05-19T11:27:29.117Z,27.72
2023-05-19T11:30:04.435Z,27.67
2023-05-19T11:32:34.076Z,27.65
2023-05-19T11:35:02.934Z,27.61
2023-05-19T11:37:34.718Z,27.53
2023-05-19T11:40:12.103Z,27.50
2023-05-19T11:42:42.148Z,27.43
2023-05-19T11:45:10.663Z,27.46
2023-05-19T11:47:57.166Z,27.51
2023-05-19T11:50:27.077Z,27.59
2023-05-19T11:52:57.813Z,27.64
2023-05-19T11:55:25.982Z,27.66
2023-05-19T11:58:05.824Z,27.66
2023-05-19T12:00:40.439Z,27.69
2023-05-19T12:03:11.002Z,27.74
2023-05-19T12:05:48.610Z,27.79
2023-05-19T12:08:19.123Z,27.79
2023-05-19T12:10:52.953Z,27.77
2023-05-19T12:13:23.148Z,27.77
2023-05-19T12:15:53.478Z,27.79
2023-05-19T12:18:21.843Z,27.79
2023-05-19T12:20:49.866Z,27.76
2023-05-19T12:23:18.194Z,27.73
2023-05-19T12:25:46.372Z,27.74
2023-05-19T12:28:16.624Z,27.73
2023-05-19T12:30:49.588Z,27.65
2023-05-19T12:33:22.829Z,27.65
2023-05-19T12:35:51.528Z,27.67
2023-05-19T12:38:20.964Z,27.69
2023-05-19T12:40:50.294Z,27.74
2023-05-19T12:43:22.484Z,27.78
2023-05-19T12:45:51.347Z,27.78
2023-05-19T12:48:22.778Z,27.74
2023-05-19T12:50:55.509Z,27.73
2023-05-19T12:53:27.868Z,27.73
2023-05-19T12:55:56.029Z,27.74
2023-05-19T12:58:24.303Z,27.75
2023-05-19T13:00:59.826Z,27.84
2023-05-19T13:03:28.483Z,27.93
2023-05-19T13:05:56.593Z,27.98
2023-05-19T13:08:25.108Z,27.96
2023-05-19T13:10:56.551Z,27.88
2023-05-19T13:13:25.313Z,27.81
2023-05-19T13:15:53.811Z,27.74
2023-05-19T13:18:22.074Z,27.70
2023-05-19T13:20:54.355Z,27.56
2023-05-19T13:23:22.352Z,27.37
2023-05-19T13:25:51.658Z,27.10
2023-05-19T13:28:20.194Z,26.56
2023-05-19T13:30:49.733Z,25.81
2023-05-19T13:33:20.479Z,25.01
2023-05-19T13:35:49.410Z,24.24
2023-05-19T13:38:17.437Z,23.61
2023-05-19T13:40:46.033Z,23.15
2023-05-19T13:43:15.168Z,22.57
2023-05-19T13:45:44.715Z,22.09
2023-05-19T13:48:13.344Z,21.60
2023-05-19T13:50:42.877Z,21.14
2023-05-19T13:53:11.773Z,20.69
2023-05-19T13:55:45.610Z,20.39
2023-05-19T13:58:19.413Z,20.05
2023-05-19T14:00:47.996Z,19.84
2023-05-19T14:03:19.901Z,19.70
2023-05-19T14:05:59.167Z,19.52
2023-05-19T14:08:28.218Z,19.40
2023-05-19T14:11:05.543Z,19.31
2023-05-19T14:16:09.246Z,19.12
2023-05-19T14:18:37.792Z,19.12
2023-05-19T14:21:08.964Z,19.11
2023-05-19T14:23:42.400Z,19.08
2023-05-19T14:26:19.957Z,19.06
2023-05-19T14:28:49.145Z,19.04
2023-05-19T14:31:19.835Z,19.02
2023-05-19T14:33:48.811Z,19.02
2023-05-19T14:36:18.819Z,19.04
2023-05-19T14:38:47.297Z,19.03
2023-05-19T14:41:15.555Z,19.01
2023-05-19T14:43:43.859Z,18.96
2023-05-19T14:46:11.889Z,18.94
2023-05-19T14:48:40.114Z,18.96
2023-05-19T14:51:08.421Z,18.97
2023-05-19T14:53:36.813Z,18.98
2023-05-19T14:56:06.539Z,19.00
2023-05-19T14:58:34.833Z,19.02
2023-05-19T15:01:02.868Z,19.04
2023-05-19T15:03:31.354Z,19.07
2023-05-19T15:06:00.310Z,19.14
2023-05-19T15:08:28.495Z,19.23
2023-05-19T15:10:56.557Z,19.31
2023-05-19T15:13:26.425Z,19.41
2023-05-19T15:16:08.448Z,19.53
2023-05-19T15:18:44.283Z,19.69
2023-05-19T15:21:12.804Z,19.85
2023-05-19T15:23:41.183Z,20.03
2023-05-19T15:26:09.664Z,20.22
2023-05-19T15:28:38.133Z,20.41
2023-05-19T15:31:07.386Z,20.60
2023-05-19T15:33:36.306Z,20.78
2023-05-19T15:36:07.062Z,20.97
2023-05-19T15:38:36.378Z,21.15
2023-05-19T15:41:08.411Z,21.32
2023-05-19T15:43:37.906Z,21.47
2023-05-19T15:46:06.885Z,21.62
2023-05-19T15:48:35.317Z,21.79
2023-05-19T15:51:03.606Z,21.94
2023-05-19T15:53:31.670Z,22.06
2023-05-19T15:56:00.917Z,22.17
2023-05-19T15:58:30.244Z,22.25
2023-05-19T16:00:58.420Z,22.28
2023-05-19T16:03:27.492Z,22.28
2023-05-19T16:05:56.742Z,22.23
2023-05-19T16:08:25.293Z,22.16
2023-05-19T16:10:55.082Z,22.08
2023-05-19T16:13:23.576Z,21.96
2023-05-19T16:15:52.733Z,21.80
2023-05-19T16:18:21.300Z,21.63
2023-05-19T16:20:51.328Z,21.46
2023-05-19T16:23:19.571Z,21.28
2023-05-19T16:25:48.935Z,21.11
2023-05-19T16:28:17.286Z,20.93
2023-05-19T16:30:46.281Z,20.73
2023-05-19T16:33:14.322Z,20.53
2023-05-19T16:35:44.645Z,20.35
2023-05-19T16:38:12.927Z,20.16
2023-05-19T16:40:41.028Z,19.97
2023-05-19T16:43:09.221Z,19.81
2023-05-19T16:45:38.437Z,19.66
2023-05-19T16:48:06.652Z,19.48
2023-05-19T16:50:35.128Z,19.33
2023-05-19T16:53:03.454Z,19.20
2023-05-19T16:55:31.758Z,19.08
2023-05-19T16:57:59.995Z,18.96
2023-05-19T17:00:29.495Z,18.82
2023-05-19T17:02:57.716Z,18.68
2023-05-19T17:05:27.379Z,18.54
2023-05-19T17:07:55.859Z,18.40
2023-05-19T17:10:24.105Z,18.25
2023-05-19T17:12:52.593Z,18.13
2023-05-19T17:15:21.106Z,17.99
2023-05-19T17:17:49.802Z,17.85
2023-05-19T17:20:20.333Z,17.73
2023-05-19T17:22:48.450Z,17.59
2023-05-19T17:25:16.696Z,17.46
2023-05-19T17:27:44.900Z,17.34
2023-05-19T17:30:14.224Z,17.20
2023-05-19T17:32:42.765Z,17.08
2023-05-19T17:35:11.415Z,16.94
2023-05-19T17:37:39.521Z,16.82
2023-05-19T17:40:08.713Z,16.67
2023-05-19T17:42:36.962Z,16.52
2023-05-19T17:45:07.778Z,16.39
2023-05-19T17:47:36.018Z,16.26
2023-05-19T17:50:04.648Z,16.14
2023-05-19T17:52:33.509Z,16.02
2023-05-19T17:55:02.080Z,15.91
2023-05-19T17:57:32.724Z,15.81
2023-05-19T18:00:01.580Z,15.70
2023-05-19T18:02:33.571Z,15.59
2023-05-19T18:05:02.214Z,15.49
2023-05-19T18:07:54.198Z,15.39
2023-05-19T18:10:24.622Z,15.30
2023-05-19T18:13:01.682Z,15.21
2023-05-19T18:15:30.035Z,15.13
2023-05-19T18:17:59.255Z,15.06
2023-05-19T18:20:28.816Z,14.99
2023-05-19T18:22:59.833Z,14.92
2023-05-19T18:25:31.067Z,14.86
2023-05-19T18:28:08.373Z,14.80
2023-05-19T18:30:36.663Z,14.75
2023-05-19T18:33:07.314Z,14.69
2023-05-19T18:35:37.511Z,14.65
2023-05-19T18:38:07.972Z,14.61
2023-05-19T18:40:36.485Z,14.57
2023-05-19T18:43:05.181Z,14.54
2023-05-19T18:45:36.930Z,14.49
2023-05-19T18:48:07.403Z,14.46
2023-05-19T18:50:36.584Z,14.43
2023-05-19T18:53:04.705Z,14.40
2023-05-19T18:55:38.287Z,14.37
2023-05-19T18:58:07.093Z,14.34
2023-05-19T19:00:36.155Z,14.32
2023-05-19T19:03:05.000Z,14.31
2023-05-19T19:05:33.569Z,14.30
2023-05-19T19:08:10.073Z,14.29
2023-05-19T19:10:40.731Z,14.28
2023-05-19T19:13:09.206Z,14.27
2023-05-19T19:15:39.704Z,14.25
2023-05-19T19:18:08.786Z,14.24
2023-05-19T19:20:37.273Z,14.22
2023-05-19T19:23:06.894Z,14.21
2023-05-19T19:25:35.708Z,14.19
2023-05-19T19:28:03.992Z,14.16
2023-05-19T19:30:32.476Z,14.13
2023-05-19T19:33:01.301Z,14.09
2023-05-19T19:35:29.801Z,14.04
2023-05-19T19:38:01.625Z,13.99
2023-05-19T19:40:36.530Z,13.95
2023-05-19T19:43:07.624Z,13.90
2023-05-19T19:45:39.458Z,13.86
2023-05-19T19:48:07.956Z,13.80
2023-05-19T19:50:36.609Z,13.75
2023-05-19T19:53:05.132Z,13.68
2023-05-19T19:55:35.982Z,13.62
2023-05-19T19:58:04.288Z,13.55
2023-05-19T20:00:32.766Z,13.49
2023-05-19T20:03:05.157Z,13.41
2023-05-19T20:05:38.056Z,13.33
2023-05-19T20:08:06.248Z,13.26
2023-05-19T20:10:34.951Z,13.18
2023-05-19T20:13:03.558Z,13.09
2023-05-19T20:15:31.987Z,13.00
2023-05-19T20:18:00.386Z,12.90
2023-05-19T20:20:29.344Z,12.81
2023-05-19T20:22:57.680Z,12.74
2023-05-19T20:25:26.277Z,12.65
2023-05-19T20:27:54.575Z,12.57
2023-05-19T20:30:23.084Z,12.50
2023-05-19T20:32:51.719Z,12.43
2023-05-19T20:35:20.108Z,12.37
2023-05-19T20:37:49.514Z,12.31
2023-05-19T20:40:18.708Z,12.24
2023-05-19T20:42:47.067Z,12.18
2023-05-19T20:45:18.574Z,12.10
2023-05-19T20:47:46.931Z,12.04
2023-05-19T20:50:15.345Z,11.98
2023-05-19T20:52:44.373Z,11.92
2023-05-19T20:55:12.801Z,11.86
2023-05-19T20:57:41.208Z,11.79
2023-05-19T21:00:11.008Z,11.73
2023-05-19T21:02:39.590Z,11.67
2023-05-19T21:05:08.809Z,11.62
2023-05-19T21:07:37.105Z,11.58
2023-05-19T21:10:06.145Z,11.54
2023-05-19T21:12:35.338Z,11.49
2023-05-19T21:15:06.027Z,11.45
2023-05-19T21:17:43.471Z,11.40
2023-05-19T21:20:12.324Z,11.36
2023-05-19T21:22:41.463Z,11.33
2023-05-19T21:25:09.758Z,11.29
2023-05-19T21:27:39.736Z,11.26
2023-05-19T21:30:09.908Z,11.22
2023-05-19T21:32:38.302Z,11.18
2023-05-19T21:35:07.028Z,11.15
2023-05-19T21:37:36.368Z,11.13
2023-05-19T21:40:05.137Z,11.11
2023-05-19T21:42:33.448Z,11.08
2023-05-19T21:45:02.389Z,11.07
2023-05-19T21:47:33.411Z,11.06
2023-05-19T21:50:01.895Z,11.04
2023-05-19T21:52:31.374Z,11.00
2023-05-19T21:54:59.989Z,10.97
2023-05-19T21:57:30.958Z,10.92
2023-05-19T21:59:59.510Z,10.89
2023-05-19T22:02:27.943Z,10.85
2023-05-19T22:04:56.261Z,10.81
2023-05-19T22:07:27.100Z,10.78
2023-05-19T22:09:58.367Z,10.74
2023-05-19T22:12:27.168Z,10.72
2023-05-19T22:14:55.713Z,10.67
2023-05-19T22:17:24.576Z,10.63
2023-05-19T22:19:56.016Z,10.59
2023-05-19T22:22:24.662Z,10.56
2023-05-19T22:25:22.656Z,10.52
2023-05-19T22:28:14.652Z,10.46
2023-05-19T22:30:44.391Z,10.41
2023-05-19T22:33:13.160Z,10.36
2023-05-19T22:35:41.804Z,10.32
2023-05-19T22:38:10.605Z,10.28
2023-05-19T22:40:39.354Z,10.24
2023-05-19T22:43:08.183Z,10.21
2023-05-19T22:45:37.005Z,10.17
2023-05-19T22:48:05.717Z,10.14
2023-05-19T22:50:34.417Z,10.10
2023-05-19T22:53:02.827Z,10.06
2023-05-19T22:55:31.605Z,10.02
2023-05-19T22:58:00.097Z,10.01
2023-05-19T23:00:31.275Z,9.99
2023-05-19T23:02:59.586Z,9.98
2023-05-19T23:05:28.181Z,9.95
2023-05-19T23:07:59.736Z,9.94
2023-05-19T23:10:28.090Z,9.91
2023-05-19T23:12:56.503Z,9.88
2023-05-19T23:15:26.913Z,9.86
2023-05-19T23:17:55.143Z,9.83
2023-05-19T23:20:26.661Z,9.81
2023-05-19T23:22:55.170Z,9.79
2023-05-19T23:25:23.737Z,9.78
2023-05-19T23:27:52.153Z,9.76
2023-05-19T23:30:20.630Z,9.74
2023-05-19T23:32:48.988Z,9.72
2023-05-19T23:35:17.501Z,9.68
2023-05-19T23:37:45.935Z,9.64
2023-05-19T23:40:22.132Z,9.60
2023-05-19T23:42:50.814Z,9.57
2023-05-19T23:45:19.228Z,9.55
2023-05-19T23:47:47.421Z,9.53
2023-05-19T23:50:15.979Z,9.50
2023-05-19T23:52:44.383Z,9.48
2023-05-19T23:55:13.814Z,9.46
2023-05-19T23:57:42.649Z,9.45
